Terminal Aerodrome Forecast
Issued by NWS Charleston, WV

Home | Current Version | Previous Version | Text Only | Print | Product List | Glossary On
Versions: 1 2 3 4 5 6 7 8 9 10 11 12 13 14 15 16 17 18 19 20 21 22
000
FTUS41 KRLX 251749
TAFBKW
TAF
KBKW 251749Z 2518/2618 26005KT P6SM SCT035
     FM252300 28004KT P6SM VCTS BKN035CB
     FM260700 VRB03KT P6SM VCTS BKN014CB
     FM260900 VRB03KT 3SM -SHRA BR VCTS BKN011CB
     FM261100 VRB02KT 2SM BR VCTS BKN025CB
     FM261200 VRB02KT 5SM BR BKN025
     FM261300 VRB03KT P6SM BKN040=

USA.gov is the U.S. government's official web portal to all federal, state and local government web resources and services.